createdAt,value
2019-05-05T00:01:11.628Z,83.37
2019-05-05T00:03:46.907Z,83.42
2019-05-05T00:06:18.208Z,83.83
2019-05-05T00:08:49.270Z,83.81
2019-05-05T00:11:27.565Z,83.67
2019-05-05T00:14:04.791Z,82.97
2019-05-05T00:16:41.286Z,83.22
2019-05-05T00:19:12.248Z,83.02
2019-05-05T00:21:44.605Z,82.28
2019-05-05T00:24:15.653Z,82.61
2019-05-05T00:26:46.603Z,83.22
2019-05-05T00:29:17.364Z,83.62
2019-05-05T00:31:48.042Z,83.85
2019-05-05T00:34:18.802Z,84.00
2019-05-05T00:36:49.818Z,84.17
2019-05-05T00:39:20.796Z,84.70
2019-05-05T00:41:51.500Z,84.83
2019-05-05T00:44:22.169Z,85.10
2019-05-05T00:46:55.453Z,84.84
2019-05-05T00:49:44.094Z,84.96
2019-05-05T00:52:07.089Z,85.04
2019-05-05T00:54:38.059Z,84.81
2019-05-05T00:57:09.251Z,84.58
2019-05-05T00:59:40.249Z,84.86
2019-05-05T01:02:14.952Z,84.73
2019-05-05T01:04:52.394Z,84.71
2019-05-05T01:07:24.756Z,85.24
2019-05-05T01:09:56.008Z,85.51
2019-05-05T01:12:27.080Z,85.13
2019-05-05T01:14:58.087Z,85.07
2019-05-05T01:17:28.759Z,84.35
2019-05-05T01:20:04.068Z,83.75
2019-05-05T01:22:34.084Z,83.63
2019-05-05T01:25:06.826Z,83.81
2019-05-05T01:27:37.526Z,82.78
2019-05-05T01:30:16.731Z,82.73
2019-05-05T01:32:49.381Z,82.71
2019-05-05T01:35:20.279Z,81.91
2019-05-05T01:38:05.793Z,81.21
2019-05-05T01:40:45.161Z,81.81
2019-05-05T01:43:15.917Z,81.66
2019-05-05T01:45:46.602Z,82.85
2019-05-05T01:48:17.387Z,82.81
2019-05-05T01:50:48.386Z,82.80
2019-05-05T01:53:19.059Z,82.93
2019-05-05T01:55:49.742Z,82.64
2019-05-05T01:58:21.301Z,82.21
2019-05-05T02:00:54.452Z,82.20
2019-05-05T02:03:24.696Z,82.12
2019-05-05T02:05:56.173Z,82.39
2019-05-05T02:08:27.195Z,82.91
2019-05-05T02:10:58.257Z,83.21
2019-05-05T02:13:29.286Z,83.08
2019-05-05T02:16:00.444Z,82.87
2019-05-05T02:18:31.095Z,82.81
2019-05-05T02:21:07.979Z,83.20
2019-05-05T02:23:38.985Z,83.31
2019-05-05T02:26:09.998Z,83.10
2019-05-05T02:28:51.442Z,83.56
2019-05-05T02:31:39.553Z,83.72
2019-05-05T02:34:11.624Z,84.02
2019-05-05T02:36:45.762Z,84.17
2019-05-05T02:39:15.931Z,83.09
2019-05-05T02:41:47.441Z,82.98
2019-05-05T02:44:18.592Z,83.07
2019-05-05T02:46:52.021Z,82.81
2019-05-05T02:49:25.581Z,82.29
2019-05-05T02:51:57.776Z,81.91
2019-05-05T02:54:30.221Z,81.92
2019-05-05T02:57:02.062Z,81.57
2019-05-05T02:59:35.568Z,81.66
2019-05-05T03:02:07.888Z,81.92
2019-05-05T03:04:39.466Z,80.79
2019-05-05T03:07:14.127Z,81.38
2019-05-05T03:09:47.917Z,80.66
2019-05-05T03:12:21.491Z,80.90
2019-05-05T03:14:56.421Z,81.20
2019-05-05T03:17:28.273Z,81.09
2019-05-05T03:19:59.551Z,81.50
2019-05-05T03:22:31.620Z,81.14
2019-05-05T03:25:04.628Z,80.66
2019-05-05T03:27:35.858Z,80.12
2019-05-05T03:30:10.155Z,80.78
2019-05-05T03:32:41.344Z,81.15
2019-05-05T03:35:14.380Z,81.46
2019-05-05T03:37:45.138Z,81.64
2019-05-05T03:40:18.064Z,80.93
2019-05-05T03:42:56.720Z,81.10
2019-05-05T03:45:29.568Z,81.15
2019-05-05T03:48:00.655Z,80.75
2019-05-05T03:50:33.585Z,80.81
2019-05-05T03:53:04.945Z,81.26
2019-05-05T03:55:36.403Z,81.87
2019-05-05T03:58:07.687Z,81.41
2019-05-05T04:00:54.989Z,81.08
2019-05-05T04:03:26.842Z,80.77
2019-05-05T04:05:59.230Z,81.33
2019-05-05T04:08:30.474Z,80.66
2019-05-05T04:11:01.424Z,80.31
2019-05-05T04:13:34.463Z,80.02
2019-05-05T04:16:13.694Z,79.49
2019-05-05T04:18:49.210Z,79.42
2019-05-05T04:21:30.297Z,79.31
2019-05-05T04:23:53.480Z,79.37
2019-05-05T04:26:24.782Z,79.06
2019-05-05T04:28:55.491Z,79.09
2019-05-05T04:31:26.220Z,78.48
2019-05-05T04:33:56.974Z,77.97
2019-05-05T04:36:27.656Z,76.86
2019-05-05T04:38:58.647Z,77.91
2019-05-05T04:41:29.304Z,77.68
2019-05-05T04:43:59.991Z,77.33
2019-05-05T04:46:30.664Z,77.33
2019-05-05T04:49:15.313Z,77.09
2019-05-05T04:51:50.220Z,76.78
2019-05-05T04:54:20.032Z,75.22
2019-05-05T04:56:50.682Z,75.05
2019-05-05T04:59:23.539Z,75.75
2019-05-05T05:01:55.902Z,75.11
2019-05-05T05:04:40.233Z,74.83
2019-05-05T05:07:13.507Z,73.93
2019-05-05T05:09:44.209Z,73.72
2019-05-05T05:12:14.876Z,74.52
2019-05-05T05:14:46.522Z,73.66
2019-05-05T05:17:19.839Z,72.82
2019-05-05T05:19:50.932Z,73.29
2019-05-05T05:22:24.125Z,73.25
2019-05-05T05:24:54.959Z,73.31
2019-05-05T05:27:41.072Z,73.14
2019-05-05T05:30:13.768Z,73.46
2019-05-05T05:32:44.996Z,73.47
2019-05-05T05:35:16.055Z,72.83
2019-05-05T05:37:47.067Z,72.00
2019-05-05T05:40:23.617Z,71.00
2019-05-05T05:42:56.386Z,71.34
2019-05-05T05:45:31.631Z,71.77
2019-05-05T05:48:04.145Z,70.98
2019-05-05T05:50:46.533Z,71.74
2019-05-05T05:53:17.796Z,70.28
2019-05-05T05:55:53.750Z,70.25
2019-05-05T05:58:24.739Z,68.39
2019-05-05T06:00:56.824Z,67.50
2019-05-05T06:03:27.869Z,68.85
2019-05-05T06:05:58.534Z,68.18
2019-05-05T06:08:30.080Z,66.53
2019-05-05T06:11:00.843Z,68.25
2019-05-05T06:13:33.637Z,66.79
2019-05-05T06:16:04.509Z,66.52
2019-05-05T06:18:35.261Z,65.04
2019-05-05T06:21:06.289Z,65.38
2019-05-05T06:23:37.509Z,65.17
2019-05-05T06:26:08.664Z,66.47
2019-05-05T06:28:40.260Z,65.91
2019-05-05T06:31:11.304Z,66.13
2019-05-05T06:33:43.696Z,65.60
2019-05-05T06:36:27.331Z,63.03
2019-05-05T06:38:58.358Z,63.28
2019-05-05T06:41:34.214Z,63.70
2019-05-05T06:44:06.591Z,62.96
2019-05-05T06:46:44.562Z,61.00
2019-05-05T06:49:15.639Z,58.71
2019-05-05T06:51:46.345Z,58.39
2019-05-05T06:54:17.188Z,61.37
2019-05-05T06:56:48.238Z,60.20
2019-05-05T06:59:19.352Z,60.69
2019-05-05T07:01:50.415Z,61.00
2019-05-05T07:04:21.394Z,61.10
2019-05-05T07:06:56.730Z,61.08
2019-05-05T07:09:26.124Z,59.48
2019-05-05T07:11:57.031Z,58.91
2019-05-05T07:14:27.804Z,58.52
2019-05-05T07:16:58.730Z,60.03
2019-05-05T07:19:29.801Z,59.96
2019-05-05T07:22:00.788Z,62.11
2019-05-05T07:24:31.400Z,62.57
2019-05-05T07:27:04.484Z,63.26
2019-05-05T07:29:34.464Z,62.06
2019-05-05T07:32:05.472Z,60.92
2019-05-05T07:34:49.767Z,61.65
2019-05-05T07:37:23.810Z,61.91
2019-05-05T07:39:55.391Z,62.51
2019-05-05T07:42:26.794Z,62.01
2019-05-05T07:44:57.721Z,62.68
2019-05-05T07:47:28.654Z,62.08
2019-05-05T07:50:00.462Z,62.21
2019-05-05T07:52:31.380Z,62.25
2019-05-05T07:55:03.636Z,61.63
2019-05-05T07:57:34.343Z,61.18
2019-05-05T08:00:08.142Z,61.83
2019-05-05T08:02:39.191Z,60.08
2019-05-05T08:05:10.292Z,58.74
2019-05-05T08:07:41.290Z,57.60
2019-05-05T08:10:13.667Z,57.66
2019-05-05T08:12:45.447Z,59.06
2019-05-05T08:15:18.639Z,57.92
2019-05-05T08:17:58.159Z,58.50
2019-05-05T08:20:30.869Z,58.46
2019-05-05T08:23:01.518Z,57.04
2019-05-05T08:25:45.201Z,55.96
2019-05-05T08:28:23.748Z,54.91
2019-05-05T08:30:56.344Z,55.22
2019-05-05T08:33:27.281Z,54.34
2019-05-05T08:35:58.250Z,50.44
2019-05-05T08:38:29.215Z,49.06
2019-05-05T08:41:01.110Z,45.73
2019-05-05T08:43:32.205Z,45.07
2019-05-05T08:46:04.894Z,43.63
2019-05-05T08:48:36.108Z,41.07
2019-05-05T08:51:07.108Z,42.10
2019-05-05T08:53:44.734Z,45.07
2019-05-05T08:56:10.191Z,46.58
2019-05-05T08:58:41.159Z,45.28
2019-05-05T09:01:11.851Z,45.20
2019-05-05T09:03:44.330Z,43.21
2019-05-05T09:06:14.943Z,41.79
2019-05-05T09:08:46.911Z,42.58
2019-05-05T09:11:17.580Z,41.40
2019-05-05T09:13:48.517Z,38.70
2019-05-05T09:16:19.558Z,40.33
2019-05-05T09:19:00.857Z,44.03
2019-05-05T09:21:31.554Z,44.20
2019-05-05T09:24:20.424Z,44.48
2019-05-05T09:26:54.082Z,39.88
2019-05-05T09:29:34.927Z,41.25
2019-05-05T09:32:06.741Z,42.42
2019-05-05T09:34:37.643Z,41.33
2019-05-05T09:37:08.743Z,40.73
2019-05-05T09:39:39.699Z,39.68
2019-05-05T09:42:10.639Z,39.65
2019-05-05T09:44:43.614Z,40.62
2019-05-05T09:47:14.313Z,42.97
2019-05-05T09:49:45.029Z,43.49
2019-05-05T09:52:16.031Z,41.55
2019-05-05T09:54:47.057Z,38.72
2019-05-05T09:57:18.042Z,35.00
2019-05-05T09:59:48.709Z,33.28
2019-05-05T10:02:19.464Z,36.21
2019-05-05T10:04:50.119Z,36.90
2019-05-05T10:07:21.108Z,31.83
2019-05-05T10:09:54.121Z,32.66
2019-05-05T10:12:24.933Z,29.66
2019-05-05T10:14:55.865Z,29.47
2019-05-05T10:17:26.818Z,31.38
2019-05-05T10:19:57.592Z,31.15
2019-05-05T10:22:28.642Z,35.22
2019-05-05T10:25:17.341Z,33.68
2019-05-05T10:27:48.092Z,36.37
2019-05-05T10:30:19.182Z,39.69
2019-05-05T10:32:50.111Z,39.07
2019-05-05T10:35:20.882Z,38.56
2019-05-05T10:37:51.865Z,38.85
2019-05-05T10:40:27.020Z,38.51
2019-05-05T10:42:57.996Z,37.24
2019-05-05T10:45:28.652Z,35.59
2019-05-05T10:47:59.421Z,34.39
2019-05-05T10:50:30.589Z,33.27
2019-05-05T10:53:01.314Z,35.13
2019-05-05T10:55:34.384Z,33.14
2019-05-05T10:58:04.893Z,33.36
2019-05-05T11:00:44.412Z,31.30
2019-05-05T11:03:15.492Z,28.15
2019-05-05T11:05:46.951Z,28.63
2019-05-05T11:08:18.818Z,30.44
2019-05-05T11:10:49.765Z,32.44
2019-05-05T11:13:20.732Z,33.40
2019-05-05T11:15:51.660Z,36.62
2019-05-05T11:18:23.762Z,37.37
2019-05-05T11:20:54.970Z,39.24
2019-05-05T11:23:25.897Z,37.65
2019-05-05T11:25:56.837Z,39.71
2019-05-05T11:28:27.772Z,38.38
2019-05-05T11:30:58.808Z,37.55
2019-05-05T11:33:31.442Z,36.76
2019-05-05T11:36:16.243Z,35.34
2019-05-05T11:38:48.987Z,31.26
2019-05-05T11:41:19.729Z,31.13
2019-05-05T11:43:50.739Z,30.79
2019-05-05T11:46:21.675Z,32.17
2019-05-05T11:48:54.417Z,33.01
2019-05-05T11:51:25.185Z,35.36
2019-05-05T11:53:56.114Z,35.87
2019-05-05T11:56:26.792Z,37.82
2019-05-05T11:58:57.755Z,39.31
2019-05-05T12:01:28.581Z,39.21
2019-05-05T12:04:00.777Z,38.55
2019-05-05T12:06:33.825Z,39.74
2019-05-05T12:09:06.538Z,40.61
2019-05-05T12:11:37.270Z,37.26
2019-05-05T12:14:09.679Z,38.22
2019-05-05T12:16:40.607Z,37.54
2019-05-05T12:19:13.786Z,34.61
2019-05-05T12:21:45.648Z,34.89
2019-05-05T12:24:18.293Z,34.59
2019-05-05T12:26:56.542Z,37.78
2019-05-05T12:29:28.464Z,37.00
2019-05-05T12:31:59.395Z,38.55
2019-05-05T12:34:30.327Z,37.16
2019-05-05T12:37:02.355Z,38.44
2019-05-05T12:39:34.297Z,38.25
2019-05-05T12:42:05.153Z,36.64
2019-05-05T12:44:37.807Z,36.97
2019-05-05T12:47:18.982Z,37.51
2019-05-05T12:49:49.781Z,37.30
2019-05-05T12:52:20.762Z,36.48
2019-05-05T12:54:51.765Z,34.70
2019-05-05T12:57:25.207Z,35.44
2019-05-05T12:59:55.870Z,36.28
2019-05-05T13:02:26.875Z,35.95
2019-05-05T13:04:57.833Z,34.67
2019-05-05T13:07:28.837Z,34.55
2019-05-05T13:09:59.569Z,33.66
2019-05-05T13:12:30.256Z,35.43
2019-05-05T13:15:01.342Z,36.03
2019-05-05T13:17:33.881Z,37.14
2019-05-05T13:20:08.029Z,37.18
2019-05-05T13:22:57.130Z,39.01
2019-05-05T13:25:33.645Z,40.16
2019-05-05T13:28:04.598Z,41.98
2019-05-05T13:30:35.354Z,41.73
2019-05-05T13:33:06.105Z,42.39
2019-05-05T13:35:37.081Z,42.88
2019-05-05T13:38:08.041Z,43.40
2019-05-05T13:40:38.752Z,43.94
2019-05-05T13:43:09.581Z,44.48
2019-05-05T13:45:43.593Z,44.25
2019-05-05T13:48:14.355Z,45.23
2019-05-05T13:50:48.044Z,44.60
2019-05-05T13:53:19.154Z,44.31
2019-05-05T13:55:49.837Z,43.07
2019-05-05T13:58:21.931Z,44.06
2019-05-05T14:00:54.622Z,42.30
2019-05-05T14:03:26.701Z,42.06
2019-05-05T14:05:58.494Z,42.28
2019-05-05T14:08:29.317Z,41.15
2019-05-05T14:11:00.361Z,41.15
2019-05-05T14:13:31.088Z,39.38
2019-05-05T14:16:03.921Z,40.07
2019-05-05T14:18:34.794Z,38.18
2019-05-05T14:21:05.770Z,35.98
2019-05-05T14:23:38.403Z,33.97
2019-05-05T14:26:21.621Z,34.69
2019-05-05T14:28:42.093Z,32.47
2019-05-05T14:31:14.646Z,33.30
2019-05-05T14:33:49.456Z,35.91
2019-05-05T14:36:22.010Z,35.81
2019-05-05T14:38:54.847Z,37.26
2019-05-05T14:41:25.786Z,38.23
2019-05-05T14:43:56.771Z,39.97
2019-05-05T14:46:27.687Z,41.63
2019-05-05T14:48:58.651Z,40.90
2019-05-05T14:51:29.566Z,42.10
2019-05-05T14:54:00.541Z,43.04
2019-05-05T14:56:36.595Z,43.07
2019-05-05T14:59:03.832Z,42.44
2019-05-05T15:01:34.635Z,42.24
2019-05-05T15:04:06.618Z,41.57
2019-05-05T15:06:39.343Z,42.65
2019-05-05T15:09:18.648Z,42.53
2019-05-05T15:12:07.148Z,41.20
2019-05-05T15:14:38.067Z,41.52
2019-05-05T15:17:09.101Z,41.94
2019-05-05T15:19:40.242Z,41.58
2019-05-05T15:22:11.296Z,40.95
2019-05-05T15:24:44.023Z,41.03
2019-05-05T15:27:15.323Z,40.41
2019-05-05T15:29:46.023Z,41.31
2019-05-05T15:32:16.800Z,40.99
2019-05-05T15:34:47.573Z,41.03
2019-05-05T15:37:18.592Z,41.90
2019-05-05T15:39:49.288Z,39.81
2019-05-05T15:42:20.420Z,39.69
2019-05-05T15:44:51.438Z,40.65
2019-05-05T15:47:23.610Z,40.78
2019-05-05T15:49:54.625Z,40.87
2019-05-05T15:52:25.675Z,41.58
2019-05-05T15:54:56.343Z,40.84
2019-05-05T15:57:27.395Z,40.66
2019-05-05T15:59:58.724Z,40.74
2019-05-05T16:02:29.774Z,40.61
2019-05-05T16:05:00.459Z,42.61
2019-05-05T16:07:33.381Z,44.26
2019-05-05T16:10:08.673Z,42.38
2019-05-05T16:12:40.393Z,42.98
2019-05-05T16:15:21.579Z,43.37
2019-05-05T16:17:58.196Z,43.32
2019-05-05T16:20:41.013Z,43.59
2019-05-05T16:23:11.727Z,44.05
2019-05-05T16:25:42.438Z,44.24
2019-05-05T16:28:14.546Z,43.72
2019-05-05T16:30:45.382Z,42.92
2019-05-05T16:33:24.063Z,42.17
2019-05-05T16:35:56.027Z,41.15
2019-05-05T16:38:28.598Z,39.83
2019-05-05T16:40:59.503Z,40.36
2019-05-05T16:43:30.273Z,40.16
2019-05-05T16:46:01.101Z,37.94
2019-05-05T16:48:34.213Z,38.29
2019-05-05T16:51:06.496Z,37.51
2019-05-05T16:53:38.370Z,37.29
2019-05-05T16:56:17.197Z,36.12
2019-05-05T16:58:47.919Z,36.30
2019-05-05T17:01:18.763Z,36.64
2019-05-05T17:03:51.239Z,36.85
2019-05-05T17:06:24.281Z,36.70
2019-05-05T17:08:54.894Z,36.75
2019-05-05T17:11:25.699Z,36.82
2019-05-05T17:14:00.919Z,37.47
2019-05-05T17:16:49.257Z,37.01
2019-05-05T17:19:21.646Z,37.27
2019-05-05T17:21:53.636Z,37.74
2019-05-05T17:24:25.513Z,37.87
2019-05-05T17:26:56.309Z,38.31
2019-05-05T17:29:28.882Z,37.64
2019-05-05T17:31:59.887Z,37.52
2019-05-05T17:34:31.107Z,38.09
2019-05-05T17:37:01.909Z,38.15
2019-05-05T17:39:34.692Z,38.50
2019-05-05T17:42:09.455Z,38.29
2019-05-05T17:45:00.357Z,38.21
2019-05-05T17:47:35.646Z,38.07
2019-05-05T17:50:14.431Z,38.23
2019-05-05T17:52:49.889Z,38.77
2019-05-05T17:55:28.276Z,39.66
2019-05-05T17:58:34.682Z,39.82
2019-05-05T18:01:07.008Z,40.26
2019-05-05T18:03:38.331Z,40.50
2019-05-05T18:06:11.024Z,40.78
2019-05-05T18:08:44.588Z,40.79
2019-05-05T18:11:22.752Z,40.53
2019-05-05T18:13:58.140Z,40.94
2019-05-05T18:16:29.102Z,41.18
2019-05-05T18:19:01.312Z,41.15
2019-05-05T18:21:34.644Z,41.28
2019-05-05T18:24:05.478Z,41.17
2019-05-05T18:26:36.523Z,41.20
2019-05-05T18:29:07.450Z,41.98
2019-05-05T18:31:38.470Z,42.43
2019-05-05T18:34:09.459Z,42.36
2019-05-05T18:36:40.442Z,42.65
2019-05-05T18:39:11.325Z,43.36
2019-05-05T18:41:44.391Z,43.77
2019-05-05T18:44:19.498Z,43.67
2019-05-05T18:47:10.970Z,43.64
2019-05-05T18:49:41.618Z,44.19
2019-05-05T18:52:13.839Z,44.61
2019-05-05T18:54:44.759Z,44.87
2019-05-05T18:57:15.876Z,45.00
2019-05-05T18:59:46.844Z,45.14
2019-05-05T19:02:26.100Z,45.71
2019-05-05T19:05:01.079Z,45.86
2019-05-05T19:07:33.767Z,45.77
2019-05-05T19:10:07.816Z,46.83
2019-05-05T19:12:38.606Z,47.60
2019-05-05T19:15:09.687Z,48.79
2019-05-05T19:17:40.549Z,48.26
2019-05-05T19:20:14.653Z,48.71
2019-05-05T19:22:45.731Z,49.41
2019-05-05T19:25:16.707Z,50.34
2019-05-05T19:27:47.927Z,50.24
2019-05-05T19:30:18.808Z,50.48
2019-05-05T19:32:49.680Z,50.58
2019-05-05T19:35:20.660Z,50.64
2019-05-05T19:37:53.928Z,50.84
2019-05-05T19:40:24.467Z,51.10
2019-05-05T19:42:55.430Z,51.63
2019-05-05T19:45:26.760Z,52.06
2019-05-05T19:47:57.751Z,52.65
2019-05-05T19:50:47.098Z,53.79
2019-05-05T19:53:24.825Z,54.37
2019-05-05T19:55:57.098Z,54.58
2019-05-05T19:58:27.854Z,55.20
2019-05-05T20:01:00.708Z,56.05
2019-05-05T20:03:32.255Z,55.64
2019-05-05T20:06:04.860Z,55.75
2019-05-05T20:08:40.939Z,56.08
2019-05-05T20:11:08.753Z,55.96
2019-05-05T20:13:39.681Z,56.02
2019-05-05T20:16:15.698Z,56.22
2019-05-05T20:18:46.650Z,56.25
2019-05-05T20:21:18.498Z,56.74
2019-05-05T20:23:49.179Z,56.64
2019-05-05T20:26:20.128Z,56.55
2019-05-05T20:28:51.050Z,57.03
2019-05-05T20:31:23.793Z,57.32
2019-05-05T20:33:58.946Z,58.33
2019-05-05T20:36:38.939Z,59.02
2019-05-05T20:39:09.886Z,59.28
2019-05-05T20:41:40.883Z,60.22
2019-05-05T20:44:13.824Z,61.03
2019-05-05T20:46:45.346Z,61.81
2019-05-05T20:49:17.593Z,62.73
2019-05-05T20:51:48.547Z,63.61
2019-05-05T20:54:19.225Z,64.21
2019-05-05T20:56:50.060Z,65.69
2019-05-05T20:59:28.208Z,66.62
2019-05-05T21:01:54.678Z,66.64
2019-05-05T21:04:25.591Z,66.71
2019-05-05T21:06:56.662Z,68.16
2019-05-05T21:09:27.604Z,67.56
2019-05-05T21:11:58.281Z,67.70
2019-05-05T21:14:34.424Z,67.89
2019-05-05T21:17:01.327Z,68.03
2019-05-05T21:19:34.343Z,68.16
2019-05-05T21:22:22.257Z,68.63
2019-05-05T21:24:54.270Z,69.02
2019-05-05T21:27:25.265Z,68.97
2019-05-05T21:29:56.446Z,69.24
2019-05-05T21:32:27.480Z,69.58
2019-05-05T21:34:58.411Z,69.49
2019-05-05T21:37:29.402Z,69.46
2019-05-05T21:40:00.346Z,69.37
2019-05-05T21:42:31.027Z,69.42
2019-05-05T21:45:01.722Z,69.47
2019-05-05T21:47:34.479Z,69.66
2019-05-05T21:50:08.318Z,69.80
2019-05-05T21:52:41.174Z,70.02
2019-05-05T21:55:30.145Z,70.23
2019-05-05T21:58:14.507Z,70.41
2019-05-05T22:01:05.038Z,70.74
2019-05-05T22:03:40.443Z,70.72
2019-05-05T22:06:11.338Z,71.20
2019-05-05T22:08:42.308Z,71.34
2019-05-05T22:11:14.630Z,71.12
2019-05-05T22:13:45.800Z,71.41
2019-05-05T22:16:16.749Z,71.63
2019-05-05T22:18:47.632Z,71.02
2019-05-05T22:21:22.846Z,70.65
2019-05-05T22:24:13.106Z,70.73
2019-05-05T22:26:44.734Z,70.86
2019-05-05T22:29:17.249Z,71.72
2019-05-05T22:31:48.306Z,71.62
2019-05-05T22:34:19.042Z,72.03
2019-05-05T22:36:49.692Z,72.30
2019-05-05T22:39:20.655Z,71.90
2019-05-05T22:41:51.295Z,71.54
2019-05-05T22:44:24.182Z,71.71
2019-05-05T22:46:54.328Z,72.10
2019-05-05T22:49:25.012Z,72.20
2019-05-05T22:51:55.696Z,71.91
2019-05-05T22:54:26.460Z,72.38
2019-05-05T22:56:57.420Z,72.42
2019-05-05T22:59:28.384Z,72.50
2019-05-05T23:02:00.089Z,72.97
2019-05-05T23:04:34.777Z,73.57
2019-05-05T23:07:06.687Z,73.45
2019-05-05T23:09:37.348Z,73.58
2019-05-05T23:12:08.668Z,73.66
2019-05-05T23:14:39.581Z,73.47
2019-05-05T23:17:26.927Z,73.54
2019-05-05T23:19:59.539Z,73.89
2019-05-05T23:22:47.217Z,73.57
2019-05-05T23:25:24.175Z,73.64
2019-05-05T23:27:54.787Z,73.43
2019-05-05T23:30:38.673Z,74.18
2019-05-05T23:32:58.155Z,74.33
2019-05-05T23:35:28.843Z,73.64
2019-05-05T23:37:59.517Z,73.77
2019-05-05T23:40:30.426Z,73.66
2019-05-05T23:43:01.107Z,74.93
2019-05-05T23:45:33.959Z,74.72
2019-05-05T23:48:04.442Z,74.74
2019-05-05T23:50:35.426Z,74.32
2019-05-05T23:53:07.378Z,74.42
2019-05-05T23:55:38.089Z,73.95
2019-05-05T23:58:09.050Z,74.88
